createdAt,value
2019-03-23T00:02:46.485Z,101544.38
2019-03-23T00:05:49.584Z,101547.41
2019-03-23T00:08:51.461Z,101541.75
2019-03-23T00:11:53.345Z,101539.75
2019-03-23T00:14:55.463Z,101535.36
2019-03-23T00:17:57.568Z,101531.80
2019-03-23T00:20:59.526Z,101521.71
2019-03-23T00:24:01.377Z,101519.31
2019-03-23T00:27:03.459Z,101513.04
2019-03-23T00:30:08.235Z,101519.12
2019-03-23T00:33:10.154Z,101510.83
2019-03-23T00:36:12.062Z,101504.02
2019-03-23T00:39:13.922Z,101499.73
2019-03-23T00:42:15.790Z,101501.33
2019-03-23T00:45:17.817Z,101496.06
2019-03-23T00:48:19.696Z,101498.90
2019-03-23T00:51:21.732Z,101496.08
2019-03-23T00:54:23.667Z,101497.42
2019-03-23T00:57:25.547Z,101494.82
2019-03-23T01:00:27.497Z,101485.06
2019-03-23T01:03:29.378Z,101485.78
2019-03-23T01:06:31.274Z,101476.14
2019-03-23T01:09:33.187Z,101471.61
2019-03-23T01:12:35.061Z,101472.10
2019-03-23T01:15:37.052Z,101466.41
2019-03-23T01:18:39.016Z,101458.79
2019-03-23T01:21:41.850Z,101457.22
2019-03-23T01:24:43.787Z,101461.48
2019-03-23T01:27:45.712Z,101454.31
2019-03-23T01:30:47.549Z,101449.95
2019-03-23T01:33:49.498Z,101444.65
2019-03-23T01:36:51.326Z,101439.25
2019-03-23T01:39:53.236Z,101440.80
2019-03-23T01:42:55.986Z,101440.37
2019-03-23T01:45:58.040Z,101446.65
2019-03-23T01:48:59.862Z,101440.91
2019-03-23T01:52:01.828Z,101439.95
2019-03-23T01:55:05.399Z,101445.16
2019-03-23T01:58:07.286Z,101436.37
2019-03-23T02:01:09.170Z,101438.97
2019-03-23T02:04:11.073Z,101440.25
2019-03-23T02:07:14.003Z,101439.89
2019-03-23T02:10:16.442Z,101441.03
2019-03-23T02:13:18.254Z,101444.12
2019-03-23T02:16:20.141Z,101439.16
2019-03-23T02:19:22.124Z,101430.99
2019-03-23T02:22:23.992Z,101422.63
2019-03-23T02:25:25.884Z,101422.41
2019-03-23T02:28:28.739Z,101418.03
2019-03-23T02:31:30.740Z,101415.42
2019-03-23T02:34:32.623Z,101423.41
2019-03-23T02:37:34.506Z,101424.27
2019-03-23T02:40:36.458Z,101421.21
2019-03-23T02:43:39.713Z,101418.83
2019-03-23T02:46:41.695Z,101420.19
2019-03-23T02:49:43.640Z,101411.34
2019-03-23T02:52:45.536Z,101412.59
2019-03-23T02:55:47.578Z,101417.20
2019-03-23T02:58:49.545Z,101407.14
2019-03-23T03:01:52.147Z,101405.25
2019-03-23T03:04:54.005Z,101403.25
2019-03-23T03:07:55.930Z,101410.69
2019-03-23T03:10:57.783Z,101402.52
2019-03-23T03:13:59.694Z,101397.16
2019-03-23T03:17:01.722Z,101388.52
2019-03-23T03:20:06.379Z,101387.80
2019-03-23T03:23:08.256Z,101389.16
2019-03-23T03:26:10.113Z,101384.62
2019-03-23T03:29:12.057Z,101383.26
2019-03-23T03:32:13.911Z,101382.53
2019-03-23T03:35:15.802Z,101371.32
2019-03-23T03:38:18.899Z,101364.85
2019-03-23T03:41:20.852Z,101356.88
2019-03-23T03:44:22.734Z,101357.72
2019-03-23T03:47:24.703Z,101363.50
2019-03-23T03:50:26.608Z,101365.49
2019-03-23T03:53:28.461Z,101357.00
2019-03-23T03:56:30.339Z,101361.08
2019-03-23T03:59:32.292Z,101357.94
2019-03-23T04:02:34.155Z,101360.13
2019-03-23T04:05:36.085Z,101358.66
2019-03-23T04:08:37.945Z,101362.02
2019-03-23T04:11:39.828Z,101358.66
2019-03-23T04:14:41.764Z,101356.53
2019-03-23T04:17:43.700Z,101354.00
2019-03-23T04:20:45.665Z,101354.30
2019-03-23T04:23:47.560Z,101362.66
2019-03-23T04:26:49.388Z,101361.30
2019-03-23T04:29:51.290Z,101353.76
2019-03-23T04:32:53.175Z,101358.25
2019-03-23T04:35:55.061Z,101356.89
2019-03-23T04:38:56.946Z,101361.61
2019-03-23T04:41:58.914Z,101357.36
2019-03-23T04:45:00.817Z,101353.99
2019-03-23T04:48:04.655Z,101355.87
2019-03-23T04:51:06.507Z,101357.61
2019-03-23T04:54:08.376Z,101355.66
2019-03-23T04:57:10.280Z,101364.39
2019-03-23T05:00:17.818Z,101354.41
2019-03-23T05:03:19.683Z,101356.00
2019-03-23T05:06:21.585Z,101352.04
2019-03-23T05:09:23.456Z,101356.88
2019-03-23T05:12:25.346Z,101367.23
2019-03-23T05:15:27.291Z,101360.05
2019-03-23T05:18:29.247Z,101355.64
2019-03-23T05:21:31.192Z,101355.86
2019-03-23T05:24:33.074Z,101353.06
2019-03-23T05:27:34.970Z,101354.97
2019-03-23T05:30:36.908Z,101353.02
2019-03-23T05:33:38.957Z,101352.09
2019-03-23T05:36:40.859Z,101358.91
2019-03-23T05:39:42.979Z,101360.69
2019-03-23T05:42:44.854Z,101358.30
2019-03-23T05:45:47.023Z,101365.14
2019-03-23T05:48:49.671Z,101355.92
2019-03-23T05:51:51.668Z,101357.77
2019-03-23T05:54:53.561Z,101348.73
2019-03-23T05:57:56.060Z,101352.20
2019-03-23T06:00:57.990Z,101351.11
2019-03-23T06:03:59.879Z,101354.70
2019-03-23T06:07:01.759Z,101357.23
2019-03-23T06:10:05.823Z,101349.59
2019-03-23T06:13:07.717Z,101354.83
2019-03-23T06:16:09.690Z,101351.02
2019-03-23T06:19:11.589Z,101347.03
2019-03-23T06:22:13.599Z,101347.02
2019-03-23T06:25:15.553Z,101334.19
2019-03-23T06:28:17.522Z,101342.55
2019-03-23T06:31:19.407Z,101335.95
2019-03-23T06:34:21.296Z,101333.78
2019-03-23T06:37:23.194Z,101330.78
2019-03-23T06:40:25.052Z,101328.14
2019-03-23T06:43:26.967Z,101327.46
2019-03-23T06:46:29.019Z,101316.83
2019-03-23T06:49:32.713Z,101320.44
2019-03-23T06:52:36.702Z,101316.64
2019-03-23T06:55:39.213Z,101321.93
2019-03-23T06:58:42.978Z,101322.85
2019-03-23T07:01:47.919Z,101319.83
2019-03-23T07:04:49.985Z,101321.48
2019-03-23T07:07:51.873Z,101326.56
2019-03-23T07:10:53.771Z,101323.52
2019-03-23T07:13:55.669Z,101313.83
2019-03-23T07:16:57.722Z,101316.60
2019-03-23T07:19:59.689Z,101323.98
2019-03-23T07:23:01.655Z,101308.20
2019-03-23T07:26:03.563Z,101301.36
2019-03-23T07:29:05.501Z,101299.78
2019-03-23T07:32:07.388Z,101305.39
2019-03-23T07:35:09.325Z,101299.69
2019-03-23T07:38:11.240Z,101296.30
2019-03-23T07:41:13.146Z,101295.17
2019-03-23T07:44:15.040Z,101292.42
2019-03-23T07:47:16.864Z,101284.57
2019-03-23T07:50:19.379Z,101288.38
2019-03-23T07:53:21.300Z,101289.41
2019-03-23T07:56:23.289Z,101286.47
2019-03-23T07:59:25.330Z,101286.84
2019-03-23T08:02:27.349Z,101277.62
2019-03-23T08:05:29.362Z,101266.06
2019-03-23T08:08:31.347Z,101264.28
2019-03-23T08:11:33.257Z,101267.59
2019-03-23T08:14:36.217Z,101265.07
2019-03-23T08:17:38.381Z,101264.81
2019-03-23T08:20:40.348Z,101260.22
2019-03-23T08:23:42.451Z,101255.45
2019-03-23T08:26:44.380Z,101253.81
2019-03-23T08:29:46.334Z,101255.59
2019-03-23T08:32:48.424Z,101253.56
2019-03-23T08:35:50.308Z,101251.02
2019-03-23T08:38:52.236Z,101251.14
2019-03-23T08:41:54.219Z,101247.91
2019-03-23T08:44:56.108Z,101258.14
2019-03-23T08:47:58.094Z,101248.48
2019-03-23T08:51:00.060Z,101248.92
2019-03-23T08:54:01.996Z,101255.79
2019-03-23T08:57:03.946Z,101249.62
2019-03-23T09:00:06.791Z,101253.89
2019-03-23T09:03:10.214Z,101247.27
2019-03-23T09:06:12.134Z,101248.14
2019-03-23T09:09:14.094Z,101249.17
2019-03-23T09:12:16.085Z,101247.27
2019-03-23T09:15:18.565Z,101240.34
2019-03-23T09:18:20.453Z,101235.19
2019-03-23T09:21:22.479Z,101244.47
2019-03-23T09:24:24.474Z,101239.73
2019-03-23T09:27:26.436Z,101235.53
2019-03-23T09:30:28.286Z,101234.53
2019-03-23T09:33:30.210Z,101233.98
2019-03-23T09:36:32.110Z,101228.89
2019-03-23T09:39:34.040Z,101226.58
2019-03-23T09:42:35.909Z,101232.69
2019-03-23T09:45:37.894Z,101223.87
2019-03-23T09:48:39.839Z,101221.11
2019-03-23T09:51:41.807Z,101213.59
2019-03-23T09:54:43.722Z,101218.77
2019-03-23T09:57:45.629Z,101218.39
2019-03-23T10:00:47.520Z,101212.14
2019-03-23T10:03:49.441Z,101208.59
2019-03-23T10:06:51.353Z,101204.05
2019-03-23T10:09:53.245Z,101210.41
2019-03-23T10:12:55.134Z,101199.13
2019-03-23T10:15:57.039Z,101202.08
2019-03-23T10:18:58.918Z,101203.72
2019-03-23T10:22:00.946Z,101193.70
2019-03-23T10:25:05.073Z,101193.56
2019-03-23T10:28:07.030Z,101198.02
2019-03-23T10:31:08.908Z,101202.72
2019-03-23T10:34:10.822Z,101205.14
2019-03-23T10:37:12.723Z,101198.55
2019-03-23T10:40:14.630Z,101204.18
2019-03-23T10:43:16.560Z,101198.18
2019-03-23T10:46:18.502Z,101187.95
2019-03-23T10:49:20.372Z,101184.04
2019-03-23T10:52:22.369Z,101180.05
2019-03-23T10:55:24.312Z,101177.23
2019-03-23T10:58:26.238Z,101171.99
2019-03-23T11:01:28.170Z,101165.30
2019-03-23T11:04:30.169Z,101158.45
2019-03-23T11:07:32.079Z,101149.42
2019-03-23T11:10:41.583Z,101157.09
2019-03-23T11:13:37.873Z,101153.98
2019-03-23T11:16:39.783Z,101158.94
2019-03-23T11:19:41.734Z,101153.67
2019-03-23T11:22:43.739Z,101151.14
2019-03-23T11:25:45.789Z,101145.33
2019-03-23T11:28:47.746Z,101150.20
2019-03-23T11:31:49.706Z,101153.79
2019-03-23T11:34:51.760Z,101142.77
2019-03-23T11:37:54.042Z,101143.27
2019-03-23T11:40:56.438Z,101140.58
2019-03-23T11:43:58.427Z,101132.28
2019-03-23T11:47:00.319Z,101132.77
2019-03-23T11:50:03.698Z,101126.22
2019-03-23T11:53:06.884Z,101122.66
2019-03-23T11:56:08.830Z,101113.27
2019-03-23T11:59:10.706Z,101110.27
2019-03-23T12:02:12.668Z,101106.80
2019-03-23T12:05:14.550Z,101105.07
2019-03-23T12:08:17.162Z,101099.34
2019-03-23T12:11:19.034Z,101089.39
2019-03-23T12:14:20.947Z,101090.06
2019-03-23T12:17:22.791Z,101081.04
2019-03-23T12:20:24.749Z,101084.25
2019-03-23T12:23:26.665Z,101075.77
2019-03-23T12:26:28.704Z,101081.61
2019-03-23T12:29:30.591Z,101077.37
2019-03-23T12:32:32.486Z,101074.40
2019-03-23T12:35:34.434Z,101065.16
2019-03-23T12:38:36.397Z,101070.27
2019-03-23T12:41:38.307Z,101066.48
2019-03-23T12:44:40.241Z,101061.08
2019-03-23T12:47:42.185Z,101054.17
2019-03-23T12:50:45.583Z,101057.18
2019-03-23T12:53:47.616Z,101059.80
2019-03-23T12:56:49.549Z,101047.34
2019-03-23T12:59:51.530Z,101050.05
2019-03-23T13:02:53.434Z,101045.81
2019-03-23T13:05:55.327Z,101052.04
2019-03-23T13:08:57.286Z,101043.06
2019-03-23T13:11:59.183Z,101046.73
2019-03-23T13:15:01.124Z,101046.08
2019-03-23T13:18:03.277Z,101042.80
2019-03-23T13:21:05.316Z,101032.78
2019-03-23T13:24:07.275Z,101024.55
2019-03-23T13:27:09.299Z,101028.48
2019-03-23T13:30:13.442Z,101022.67
2019-03-23T13:33:15.317Z,101011.52
2019-03-23T13:36:17.350Z,101011.31
2019-03-23T13:39:19.235Z,101025.31
2019-03-23T13:42:21.196Z,101017.70
2019-03-23T13:45:23.120Z,101011.70
2019-03-23T13:48:25.126Z,101008.34
2019-03-23T13:51:28.764Z,100997.73
2019-03-23T13:54:30.863Z,100991.86
2019-03-23T13:57:32.729Z,100989.28
2019-03-23T14:00:34.865Z,100983.06
2019-03-23T14:03:36.783Z,100974.83
2019-03-23T14:06:38.790Z,100976.39
2019-03-23T14:09:40.642Z,100975.41
2019-03-23T14:12:42.560Z,100968.05
2019-03-23T14:15:44.488Z,100967.41
2019-03-23T14:18:46.476Z,100961.64
2019-03-23T14:21:48.445Z,100961.19
2019-03-23T14:24:50.384Z,100957.77
2019-03-23T14:27:52.380Z,100952.09
2019-03-23T14:30:54.351Z,100959.64
2019-03-23T14:33:56.268Z,100953.53
2019-03-23T14:36:58.185Z,100955.13
2019-03-23T14:40:00.047Z,100954.34
2019-03-23T14:43:01.985Z,100949.81
2019-03-23T14:46:03.936Z,100947.40
2019-03-23T14:49:05.831Z,100942.84
2019-03-23T14:52:07.826Z,100936.88
2019-03-23T14:55:09.887Z,100936.88
2019-03-23T14:58:11.803Z,100937.37
2019-03-23T15:01:13.717Z,100937.37
2019-03-23T15:04:15.657Z,100940.97
2019-03-23T15:07:17.605Z,100931.70
2019-03-23T15:10:19.506Z,100928.40
2019-03-23T15:13:21.470Z,100922.41
2019-03-23T15:16:23.378Z,100935.01
2019-03-23T15:19:25.319Z,100928.05
2019-03-23T15:22:27.215Z,100925.56
2019-03-23T15:25:29.615Z,100922.36
2019-03-23T15:28:31.648Z,100918.36
2019-03-23T15:31:33.578Z,100921.55
2019-03-23T15:34:35.524Z,100918.42
2019-03-23T15:37:37.469Z,100916.39
2019-03-23T15:40:39.395Z,100930.44
2019-03-23T15:43:41.372Z,100926.08
2019-03-23T15:46:43.255Z,100931.91
2019-03-23T15:49:45.198Z,100928.43
2019-03-23T15:52:47.116Z,100921.83
2019-03-23T15:55:49.118Z,100922.84
2019-03-23T15:58:51.023Z,100916.48
2019-03-23T16:01:53.003Z,100915.37
2019-03-23T16:04:54.943Z,100915.84
2019-03-23T16:07:56.882Z,100915.08
2019-03-23T16:10:58.853Z,100919.85
2019-03-23T16:14:00.874Z,100917.34
2019-03-23T16:17:02.786Z,100908.42
2019-03-23T16:20:09.719Z,100910.25
2019-03-23T16:23:11.661Z,100911.99
2019-03-23T16:26:13.624Z,100917.48
2019-03-23T16:29:15.711Z,100913.98
2019-03-23T16:32:17.711Z,100908.42
2019-03-23T16:35:19.610Z,100913.73
2019-03-23T16:38:21.593Z,100916.38
2019-03-23T16:41:23.496Z,100909.42
2019-03-23T16:44:25.455Z,100920.03
2019-03-23T16:47:29.108Z,100920.75
2019-03-23T16:50:31.989Z,100919.52
2019-03-23T16:53:33.958Z,100920.61
2019-03-23T16:56:35.986Z,100920.60
2019-03-23T16:59:37.911Z,100920.26
2019-03-23T17:02:39.810Z,100920.56
2019-03-23T17:05:41.778Z,100922.78
2019-03-23T17:08:43.727Z,100924.48
2019-03-23T17:11:45.618Z,100925.86
2019-03-23T17:14:47.571Z,100919.75
2019-03-23T17:17:49.515Z,100925.27
2019-03-23T17:20:51.416Z,100930.73
2019-03-23T17:23:53.311Z,100925.34
2019-03-23T17:26:55.285Z,100929.35
2019-03-23T17:29:57.484Z,100929.53
2019-03-23T17:32:59.359Z,100932.98
2019-03-23T17:36:01.297Z,100932.59
2019-03-23T17:39:04.908Z,100931.59
2019-03-23T17:42:07.819Z,100931.39
2019-03-23T17:45:10.075Z,100932.08
2019-03-23T17:48:12.058Z,100930.78
2019-03-23T17:51:13.930Z,100933.11
2019-03-23T17:54:15.903Z,100925.98
2019-03-23T17:57:17.841Z,100934.92
2019-03-23T18:00:19.780Z,100937.25
2019-03-23T18:03:21.681Z,100937.89
2019-03-23T18:06:23.594Z,100939.06
2019-03-23T18:09:25.481Z,100937.45
2019-03-23T18:12:27.437Z,100933.35
2019-03-23T18:15:29.822Z,100936.71
2019-03-23T18:18:31.812Z,100933.95
2019-03-23T18:21:33.717Z,100932.33
2019-03-23T18:24:35.624Z,100938.45
2019-03-23T18:27:37.557Z,100938.47
2019-03-23T18:30:40.628Z,100946.55
2019-03-23T18:33:42.613Z,100945.45
2019-03-23T18:36:44.725Z,100955.44
2019-03-23T18:39:46.734Z,100960.71
2019-03-23T18:42:48.608Z,100965.98
2019-03-23T18:45:50.558Z,100963.26
2019-03-23T18:48:52.504Z,100962.77
2019-03-23T18:51:54.434Z,100968.03
2019-03-23T18:54:56.345Z,100970.25
2019-03-23T18:57:58.359Z,100966.97
2019-03-23T19:01:00.312Z,100975.53
2019-03-23T19:04:02.313Z,100981.88
2019-03-23T19:07:04.209Z,100981.61
2019-03-23T19:10:06.427Z,100979.66
2019-03-23T19:13:08.415Z,100983.24
2019-03-23T19:16:10.304Z,100979.66
2019-03-23T19:19:12.501Z,100982.98
2019-03-23T19:22:14.440Z,100983.81
2019-03-23T19:25:18.528Z,100986.88
2019-03-23T19:28:20.245Z,100989.64
2019-03-23T19:31:22.968Z,100992.66
2019-03-23T19:34:27.114Z,100993.78
2019-03-23T19:37:29.064Z,100990.20
2019-03-23T19:40:31.006Z,101002.33
2019-03-23T19:43:33.297Z,101004.83
2019-03-23T19:46:35.239Z,101008.12
2019-03-23T19:49:37.205Z,101016.70
2019-03-23T19:52:39.409Z,101021.67
2019-03-23T19:55:48.857Z,101019.73
2019-03-23T19:58:50.810Z,101032.16
2019-03-23T20:01:52.743Z,101030.52
2019-03-23T20:04:54.635Z,101039.06
2019-03-23T20:07:56.550Z,101038.25
2019-03-23T20:10:58.448Z,101050.97
2019-03-23T20:14:00.437Z,101054.84
2019-03-23T20:17:02.323Z,101057.87
2019-03-23T20:20:06.184Z,101063.67
2019-03-23T20:23:10.473Z,101061.75
2019-03-23T20:26:12.343Z,101061.73
2019-03-23T20:29:14.373Z,101074.42
2019-03-23T20:32:16.379Z,101072.41
2019-03-23T20:35:18.359Z,101077.63
2019-03-23T20:38:20.333Z,101088.90
2019-03-23T20:41:22.209Z,101086.37
2019-03-23T20:44:24.092Z,101102.05
2019-03-23T20:47:26.028Z,101108.64
2019-03-23T20:50:29.800Z,101105.55
2019-03-23T20:53:32.195Z,101109.05
2019-03-23T20:56:34.164Z,101109.24
2019-03-23T20:59:36.118Z,101116.35
2019-03-23T21:02:38.087Z,101121.20
2019-03-23T21:05:39.994Z,101123.30
2019-03-23T21:08:41.954Z,101131.73
2019-03-23T21:11:43.909Z,101133.55
2019-03-23T21:14:45.825Z,101137.58
2019-03-23T21:17:51.446Z,101147.40
2019-03-23T21:20:51.640Z,101146.70
2019-03-23T21:23:53.587Z,101152.34
2019-03-23T21:26:55.472Z,101145.92
2019-03-23T21:29:57.397Z,101155.48
2019-03-23T21:32:59.511Z,101161.63
2019-03-23T21:36:01.417Z,101164.03
2019-03-23T21:39:05.443Z,101151.59
2019-03-23T21:42:08.504Z,101168.24
2019-03-23T21:45:10.874Z,101166.75
2019-03-23T21:48:12.875Z,101178.48
2019-03-23T21:51:14.764Z,101185.32
2019-03-23T21:54:16.745Z,101186.33
2019-03-23T21:57:18.643Z,101195.31
2019-03-23T22:00:29.417Z,101210.98
2019-03-23T22:03:31.334Z,101213.64
2019-03-23T22:06:33.242Z,101221.33
2019-03-23T22:09:35.106Z,101234.97
2019-03-23T22:12:37.006Z,101241.84
2019-03-23T22:15:38.942Z,101246.74
2019-03-23T22:18:40.910Z,101256.83
2019-03-23T22:21:42.856Z,101259.98
2019-03-23T22:24:44.782Z,101264.31
2019-03-23T22:27:46.809Z,101264.66
2019-03-23T22:30:48.788Z,101277.57
2019-03-23T22:33:50.789Z,101274.72
2019-03-23T22:36:52.738Z,101274.08
2019-03-23T22:39:54.679Z,101270.66
2019-03-23T22:42:56.745Z,101268.25
2019-03-23T22:45:58.666Z,101279.02
2019-03-23T22:49:00.619Z,101280.55
2019-03-23T22:52:02.535Z,101281.14
2019-03-23T22:55:05.796Z,101283.24
2019-03-23T22:58:07.700Z,101285.21
2019-03-23T23:01:10.481Z,101281.97
2019-03-23T23:04:12.343Z,101283.67
2019-03-23T23:07:14.318Z,101285.36
2019-03-23T23:10:16.174Z,101288.06
2019-03-23T23:13:18.062Z,101278.63
2019-03-23T23:16:19.975Z,101277.75
2019-03-23T23:19:21.930Z,101285.27
2019-03-23T23:22:23.823Z,101281.19
2019-03-23T23:25:25.759Z,101293.83
2019-03-23T23:28:27.711Z,101287.94
2019-03-23T23:31:30.877Z,101285.89
2019-03-23T23:34:32.867Z,101282.17
2019-03-23T23:37:34.900Z,101278.34
2019-03-23T23:40:36.819Z,101284.98
2019-03-23T23:43:38.766Z,101278.92
2019-03-23T23:46:41.542Z,101279.47
2019-03-23T23:49:44.819Z,101291.70
2019-03-23T23:52:46.715Z,101291.47
2019-03-23T23:55:48.650Z,101286.58
2019-03-23T23:58:50.522Z,101285.87
